Terminal Aerodrome Forecast
Issued by NWS

Home | Current Version | Previous Version | Text Only | Print | Product List | Glossary On
Versions: 1 2 3 4 5 6 7 8 9 10 11 12 13 14 15 16 17 18 19 20 21 22 23 24 25 26 27 28 29 30 31 32 33 34 35 36 37 38 39 40 41 42 43 44 45 46 47 48
000
FTUS45 KVEF 201122
TAFLAS
TAF
KLAS 201122Z 2012/2118 VRB04KT P6SM FEW130
     FM201700 09007KT P6SM SCT130
     FM202100 16011KT P6SM SCT130
     FM210200 21009KT P6SM SCT110 BKN130
     FM210800 VRB06KT P6SM BKN110 PROB30 2108/2112 -SHRA OVC110
     FM211200 VRB06KT P6SM BKN100 PROB30 2112/2118 -SHRA OVC090=

USA.gov is the U.S. government's official web portal to all federal, state and local government web resources and services.